PWSweather.com
Personal Weather Stations
Station Observations
KAZSIERR7
Canyon De Flores, Sierra Vista, AZ 85650

Canyon De FloresSierra Vista, AZ 85650

Lat: 31.5, Lon: -110.26

Elevation: 4645

Station Type: LaCrosse WS-3610 & Boltek Lightning Detector

http://www.lightningring.com/weather/

Latest ConditionsUpdated 7:00:59 AM MST Thursday, Jul 30, 2015
Currently Today's Max Today's Min Today's Average
Temperature 70.0°F21.1°C 70.0°F21.1°C 63.3°F17.4°C 66.4°F19.1°C
Dew Point 59.2°F15.1°C 59.5°F15.3°C 57.2°F14.0°C 58.5°F14.7°C
Winds 2.5 mph SSE4.0 kmh SSE 6.2 mph S10.0 kmh S - 1.8 mph 2.9 kmh
Wind Gusts 3.8 mph6.1 kmh 31.5 mph50.7 kmh - -
Humidity 70% 83% 69% 76%
Pressure 30.23 in1023.7 mb 30.23 in1023.7 mb 30.20 in1022.7 mb -
Hour Temp Dew Point Humidity Winds Wind Gusts Pressure Precip Precip Rate Daily Precip Total
07:00 AM 70.0°F21.1°C 59.2°F15.1°C 70% 2.5 mph SSE4.0 kmh SSE 3.8 mph6.1 kmh 30.23 in1023.7 mb 0.00 in0.0 mm 0.00 in0.0 mm 0.00 in0.0 mm
06:55 AM 70.0°F21.1°C 59.2°F15.1°C 70% 1.7 mph ESE2.7 kmh ESE 5.3 mph8.5 kmh 30.23 in1023.7 mb 0.00 in0.0 mm 0.00 in0.0 mm 0.00 in0.0 mm
06:50 AM 70.0°F21.1°C 59.2°F15.1°C 69% 4.8 mph ESE7.7 kmh ESE 5.3 mph8.5 kmh 30.23 in1023.7 mb 0.00 in0.0 mm 0.00 in0.0 mm 0.00 in0.0 mm
06:45 AM 69.6°F20.9°C 59.4°F15.2°C 70% 2.2 mph ESE3.5 kmh ESE 4.0 mph6.4 kmh 30.22 in1023.4 mb 0.00 in0.0 mm 0.00 in0.0 mm 0.00 in0.0 mm
06:40 AM 69.6°F20.9°C 59.4°F15.2°C 70% 3.3 mph SE5.3 kmh SE 4.0 mph6.4 kmh 30.22 in1023.4 mb 0.00 in0.0 mm 0.00 in0.0 mm 0.00 in0.0 mm
06:34 AM 69.4°F20.8°C 59.2°F15.1°C 70% 2.9 mph SE4.7 kmh SE 4.2 mph6.8 kmh 30.22 in1023.4 mb 0.00 in0.0 mm 0.00 in0.0 mm 0.00 in0.0 mm
06:29 AM 69.4°F20.8°C 59.2°F15.1°C 70% 2.6 mph S4.2 kmh S 4.2 mph6.8 kmh 30.22 in1023.4 mb 0.00 in0.0 mm 0.00 in0.0 mm 0.00 in0.0 mm
06:24 AM 69.1°F20.6°C 58.8°F14.9°C 70% 1.7 mph ENE2.7 kmh ENE 4.9 mph7.9 kmh 30.22 in1023.4 mb 0.00 in0.0 mm 0.00 in0.0 mm 0.00 in0.0 mm
06:19 AM 68.5°F20.3°C 58.6°F14.8°C 71% 4.9 mph SSE7.9 kmh SSE 4.9 mph7.9 kmh 30.22 in1023.4 mb 0.00 in0.0 mm 0.00 in0.0 mm 0.00 in0.0 mm
06:13 AM 68.4°F20.2°C 58.5°F14.7°C 71% 2.9 mph SE4.7 kmh SE 15.2 mph24.5 kmh 30.22 in1023.4 mb 0.00 in0.0 mm 0.00 in0.0 mm 0.00 in0.0 mm
06:08 AM 67.8°F19.9°C 58.5°F14.7°C 72% 2.1 mph SE3.4 kmh SE 15.2 mph24.5 kmh 30.21 in1023.0 mb 0.00 in0.0 mm 0.00 in0.0 mm 0.00 in0.0 mm
06:03 AM 67.8°F19.9°C 58.1°F14.5°C 71% 3.7 mph SSE6.0 kmh SSE 14.7 mph23.7 kmh 30.21 in1023.0 mb 0.00 in0.0 mm 0.00 in0.0 mm 0.00 in0.0 mm
05:58 AM 67.6°F19.8°C 57.9°F14.4°C 71% 4.1 mph SSE6.6 kmh SSE 31.5 mph50.7 kmh 30.22 in1023.4 mb 0.00 in0.0 mm 0.00 in0.0 mm 0.00 in0.0 mm
05:52 AM 67.6°F19.8°C 58.3°F14.6°C 72% 2.0 mph SSE3.2 kmh SSE 31.5 mph50.7 kmh 30.22 in1023.4 mb 0.00 in0.0 mm 0.00 in0.0 mm 0.00 in0.0 mm
05:47 AM 67.6°F19.8°C 58.3°F14.6°C 72% 4.1 mph SE6.6 kmh SE 16.5 mph26.6 kmh 30.22 in1023.4 mb 0.00 in0.0 mm 0.00 in0.0 mm 0.00 in0.0 mm
05:42 AM 67.8°F19.9°C 58.5°F14.7°C 72% 4.2 mph SE6.8 kmh SE 14.0 mph22.5 kmh 30.22 in1023.4 mb 0.00 in0.0 mm 0.00 in0.0 mm 0.00 in0.0 mm
05:37 AM 67.6°F19.8°C 58.6°F14.8°C 72% 3.5 mph SE5.6 kmh SE 3.8 mph6.1 kmh 30.22 in1023.4 mb 0.00 in0.0 mm 0.00 in0.0 mm 0.00 in0.0 mm
05:31 AM 67.6°F19.8°C 58.6°F14.8°C 72% 1.6 mph SE2.6 kmh SE 15.2 mph24.5 kmh 30.21 in1023.0 mb 0.00 in0.0 mm 0.00 in0.0 mm 0.00 in0.0 mm
05:26 AM 67.6°F19.8°C 58.6°F14.8°C 73% 1.7 mph SE2.7 kmh SE 15.8 mph25.4 kmh 30.21 in1023.0 mb 0.00 in0.0 mm 0.00 in0.0 mm 0.00 in0.0 mm
05:21 AM 67.8°F19.9°C 58.8°F14.9°C 73% 3.7 mph SE6.0 kmh SE 15.8 mph25.4 kmh 30.21 in1023.0 mb 0.00 in0.0 mm 0.00 in0.0 mm 0.00 in0.0 mm
05:16 AM 67.6°F19.8°C 59.0°F15.0°C 73% 1.1 mph SE1.8 kmh SE 4.4 mph7.1 kmh 30.21 in1023.0 mb 0.00 in0.0 mm 0.00 in0.0 mm 0.00 in0.0 mm
05:10 AM 67.6°F19.8°C 59.0°F15.0°C 74% 3.3 mph SW5.3 kmh SW 4.6 mph7.4 kmh 30.20 in1022.7 mb 0.00 in0.0 mm 0.00 in0.0 mm 0.00 in0.0 mm
05:05 AM 67.5°F19.7°C 58.8°F14.9°C 74% 4.5 mph SSE7.2 kmh SSE 4.6 mph7.4 kmh 30.20 in1022.7 mb 0.00 in0.0 mm 0.00 in0.0 mm 0.00 in0.0 mm
04:59 AM 67.5°F19.7°C 58.8°F14.9°C 74% 2.9 mph SSE4.7 kmh SSE 3.8 mph6.1 kmh 30.20 in1022.7 mb 0.00 in0.0 mm 0.00 in0.0 mm 0.00 in0.0 mm
04:54 AM 67.5°F19.7°C 58.8°F14.9°C 74% 1.7 mph S2.7 kmh S 20.3 mph32.7 kmh 30.20 in1022.7 mb 0.00 in0.0 mm 0.00 in0.0 mm 0.00 in0.0 mm
04:49 AM 67.6°F19.8°C 59.0°F15.0°C 74% 6.2 mph S10.0 kmh S 20.3 mph32.7 kmh 30.20 in1022.7 mb 0.00 in0.0 mm 0.00 in0.0 mm 0.00 in0.0 mm
04:44 AM 67.3°F19.6°C 58.6°F14.8°C 74% 4.7 mph S7.6 kmh S 27.2 mph43.8 kmh 30.20 in1022.7 mb 0.00 in0.0 mm 0.00 in0.0 mm 0.00 in0.0 mm
04:38 AM 67.1°F19.5°C 58.8°F14.9°C 75% 5.0 mph S8.0 kmh S 27.2 mph43.8 kmh 30.20 in1022.7 mb 0.00 in0.0 mm 0.00 in0.0 mm 0.00 in0.0 mm
04:33 AM 66.9°F19.4°C 58.6°F14.8°C 75% 3.8 mph SSE6.1 kmh SSE 5.1 mph8.2 kmh 30.20 in1022.7 mb 0.00 in0.0 mm 0.00 in0.0 mm 0.00 in0.0 mm
04:28 AM 66.9°F19.4°C 58.3°F14.6°C 75% 2.9 mph SSE4.7 kmh SSE 3.5 mph5.6 kmh 30.20 in1022.7 mb 0.00 in0.0 mm 0.00 in0.0 mm 0.00 in0.0 mm
04:23 AM 66.9°F19.4°C 58.3°F14.6°C 74% 2.3 mph SE3.7 kmh SE 4.2 mph6.8 kmh 30.20 in1022.7 mb 0.00 in0.0 mm 0.00 in0.0 mm 0.00 in0.0 mm
04:17 AM 67.1°F19.5°C 58.5°F14.7°C 74% 3.9 mph SE6.3 kmh SE 4.2 mph6.8 kmh 30.20 in1022.7 mb 0.00 in0.0 mm 0.00 in0.0 mm 0.00 in0.0 mm
04:12 AM 67.3°F19.6°C 58.6°F14.8°C 74% 3.5 mph S5.6 kmh S 9.6 mph15.4 kmh 30.20 in1022.7 mb 0.00 in0.0 mm 0.00 in0.0 mm 0.00 in0.0 mm
04:07 AM 67.3°F19.6°C 58.3°F14.6°C 73% 3.1 mph ESE5.0 kmh ESE 14.9 mph24.0 kmh 30.20 in1022.7 mb 0.00 in0.0 mm 0.00 in0.0 mm 0.00 in0.0 mm
04:02 AM 67.3°F19.6°C 58.3°F14.6°C 73% 3.9 mph SSE6.3 kmh SSE 14.9 mph24.0 kmh 30.20 in1022.7 mb 0.00 in0.0 mm 0.00 in0.0 mm 0.00 in0.0 mm
03:57 AM 67.1°F19.5°C 58.5°F14.7°C 74% 2.5 mph S4.0 kmh S 3.8 mph6.1 kmh 30.20 in1022.7 mb 0.00 in0.0 mm 0.00 in0.0 mm 0.00 in0.0 mm
03:51 AM 66.9°F19.4°C 58.3°F14.6°C 74% 1.5 mph S2.4 kmh S 3.5 mph5.6 kmh 30.20 in1022.7 mb 0.00 in0.0 mm 0.00 in0.0 mm 0.00 in0.0 mm
03:46 AM 66.9°F19.4°C 58.3°F14.6°C 74% Calm Calm 3.5 mph5.6 kmh 30.20 in1022.7 mb 0.00 in0.0 mm 0.00 in0.0 mm 0.00 in0.0 mm
03:41 AM 66.7°F19.3°C 58.5°F14.7°C 75% 3.5 mph SSW5.6 kmh SSW 4.4 mph7.1 kmh 30.20 in1022.7 mb 0.00 in0.0 mm 0.00 in0.0 mm 0.00 in0.0 mm
03:36 AM 66.0°F18.9°C 58.1°F14.5°C 76% 2.0 mph S3.2 kmh S 4.4 mph7.1 kmh 30.21 in1023.0 mb 0.00 in0.0 mm 0.00 in0.0 mm 0.00 in0.0 mm
03:30 AM 65.5°F18.6°C 57.9°F14.4°C 77% 4.4 mph S7.1 kmh S 4.4 mph7.1 kmh 30.20 in1022.7 mb 0.00 in0.0 mm 0.00 in0.0 mm 0.00 in0.0 mm
03:25 AM 64.9°F18.3°C 58.1°F14.5°C 79% Calm Calm -- 30.20 in1022.7 mb 0.00 in0.0 mm 0.00 in0.0 mm 0.00 in0.0 mm
03:20 AM 64.4°F18.0°C 58.3°F14.6°C 81% Calm Calm -- 30.21 in1023.0 mb 0.00 in0.0 mm 0.00 in0.0 mm 0.00 in0.0 mm
03:14 AM 64.6°F18.1°C 58.5°F14.7°C 81% Calm Calm -- 30.20 in1022.7 mb 0.00 in0.0 mm 0.00 in0.0 mm 0.00 in0.0 mm
03:09 AM 64.9°F18.3°C 59.5°F15.3°C 81% Calm Calm 3.8 mph6.1 kmh 30.21 in1023.0 mb 0.00 in0.0 mm 0.00 in0.0 mm 0.00 in0.0 mm
03:04 AM 64.9°F18.3°C 59.5°F15.3°C 83% 3.8 mph S6.1 kmh S 3.8 mph6.1 kmh 30.20 in1022.7 mb 0.00 in0.0 mm 0.00 in0.0 mm 0.00 in0.0 mm
02:59 AM 64.6°F18.1°C 59.2°F15.1°C 83% Calm Calm 4.6 mph7.4 kmh 30.20 in1022.7 mb 0.00 in0.0 mm 0.00 in0.0 mm 0.00 in0.0 mm
02:53 AM 64.6°F18.1°C 59.2°F15.1°C 83% Calm Calm 4.6 mph7.4 kmh 30.20 in1022.7 mb 0.00 in0.0 mm 0.00 in0.0 mm 0.00 in0.0 mm
02:48 AM 64.6°F18.1°C 59.2°F15.1°C 83% 4.6 mph S7.4 kmh S 4.6 mph7.4 kmh 30.20 in1022.7 mb 0.00 in0.0 mm 0.00 in0.0 mm 0.00 in0.0 mm
02:43 AM 64.6°F18.1°C 58.8°F14.9°C 83% 2.9 mph SSE4.7 kmh SSE 4.4 mph7.1 kmh 30.20 in1022.7 mb 0.00 in0.0 mm 0.00 in0.0 mm 0.00 in0.0 mm
02:38 AM 64.6°F18.1°C 58.8°F14.9°C 82% Calm Calm 4.4 mph7.1 kmh 30.20 in1022.7 mb 0.00 in0.0 mm 0.00 in0.0 mm 0.00 in0.0 mm
02:32 AM 64.8°F18.2°C 58.6°F14.8°C 81% 3.2 mph S5.1 kmh S 4.4 mph7.1 kmh 30.20 in1022.7 mb 0.00 in0.0 mm 0.00 in0.0 mm 0.00 in0.0 mm
02:27 AM 64.8°F18.2°C 58.5°F14.7°C 81% Calm Calm 2.9 mph4.7 kmh 30.20 in1022.7 mb 0.00 in0.0 mm 0.00 in0.0 mm 0.00 in0.0 mm
02:22 AM 64.9°F18.3°C 58.6°F14.8°C 80% 2.9 mph S4.7 kmh S 2.9 mph4.7 kmh 30.21 in1023.0 mb 0.00 in0.0 mm 0.00 in0.0 mm 0.00 in0.0 mm
02:17 AM 64.8°F18.2°C 58.5°F14.7°C 80% 1.5 mph S2.4 kmh S 1.5 mph2.4 kmh 30.20 in1022.7 mb 0.00 in0.0 mm 0.00 in0.0 mm 0.00 in0.0 mm
02:11 AM 64.6°F18.1°C 58.5°F14.7°C 81% Calm Calm -- 30.20 in1022.7 mb 0.00 in0.0 mm 0.00 in0.0 mm 0.00 in0.0 mm
02:06 AM 64.0°F17.8°C 57.9°F14.4°C 81% Calm Calm -- 30.21 in1023.0 mb 0.00 in0.0 mm 0.00 in0.0 mm 0.00 in0.0 mm
02:01 AM 63.3°F17.4°C 57.2°F14.0°C 82% Calm Calm -- 30.21 in1023.0 mb 0.00 in0.0 mm 0.00 in0.0 mm 0.00 in0.0 mm
01:56 AM 63.3°F17.4°C 57.2°F14.0°C 82% Calm Calm -- 30.21 in1023.0 mb 0.00 in0.0 mm 0.00 in0.0 mm 0.00 in0.0 mm
01:50 AM 63.7°F17.6°C 57.4°F14.1°C 81% Calm Calm -- 30.21 in1023.0 mb 0.00 in0.0 mm 0.00 in0.0 mm 0.00 in0.0 mm
01:45 AM 64.0°F17.8°C 57.7°F14.3°C 80% Calm Calm -- 30.21 in1023.0 mb 0.00 in0.0 mm 0.00 in0.0 mm 0.00 in0.0 mm
01:40 AM 64.2°F17.9°C 57.9°F14.4°C 80% Calm Calm -- 30.21 in1023.0 mb 0.00 in0.0 mm 0.00 in0.0 mm 0.00 in0.0 mm
01:35 AM 64.6°F18.1°C 57.7°F14.3°C 79% Calm Calm -- 30.21 in1023.0 mb 0.00 in0.0 mm 0.00 in0.0 mm 0.00 in0.0 mm
01:29 AM 65.1°F18.4°C 57.9°F14.4°C 78% Calm Calm -- 30.22 in1023.4 mb 0.00 in0.0 mm 0.00 in0.0 mm 0.00 in0.0 mm
01:24 AM 65.8°F18.8°C 58.6°F14.8°C 78% Calm Calm -- 30.22 in1023.4 mb 0.00 in0.0 mm 0.00 in0.0 mm 0.00 in0.0 mm
01:19 AM 65.8°F18.8°C 58.6°F14.8°C 78% Calm Calm -- 30.22 in1023.4 mb 0.00 in0.0 mm 0.00 in0.0 mm 0.00 in0.0 mm
01:14 AM 65.5°F18.6°C 58.6°F14.8°C 79% Calm Calm -- 30.22 in1023.4 mb 0.00 in0.0 mm 0.00 in0.0 mm 0.00 in0.0 mm
01:08 AM 64.8°F18.2°C 57.9°F14.4°C 80% Calm Calm -- 30.22 in1023.4 mb 0.00 in0.0 mm 0.00 in0.0 mm 0.00 in0.0 mm
01:03 AM 64.9°F18.3°C 58.1°F14.5°C 79% Calm Calm -- 30.22 in1023.4 mb 0.00 in0.0 mm 0.00 in0.0 mm 0.00 in0.0 mm
12:58 AM 65.1°F18.4°C 57.9°F14.4°C 78% Calm Calm -- 30.22 in1023.4 mb 0.00 in0.0 mm 0.00 in0.0 mm 0.00 in0.0 mm
12:53 AM 65.3°F18.5°C 58.5°F14.7°C 79% Calm Calm -- 30.22 in1023.4 mb 0.00 in0.0 mm 0.00 in0.0 mm 0.00 in0.0 mm
12:47 AM 64.9°F18.3°C 58.1°F14.5°C 79% Calm Calm -- 30.22 in1023.4 mb 0.00 in0.0 mm 0.00 in0.0 mm 0.00 in0.0 mm
12:42 AM 64.9°F18.3°C 58.1°F14.5°C 79% Calm Calm -- 30.22 in1023.4 mb 0.00 in0.0 mm 0.00 in0.0 mm 0.00 in0.0 mm
12:37 AM 65.1°F18.4°C 57.9°F14.4°C 78% Calm Calm -- 30.22 in1023.4 mb 0.00 in0.0 mm 0.00 in0.0 mm 0.00 in0.0 mm
12:32 AM 65.1°F18.4°C 57.9°F14.4°C 78% Calm Calm -- 30.22 in1023.4 mb 0.00 in0.0 mm 0.00 in0.0 mm 0.00 in0.0 mm
12:26 AM 65.7°F18.7°C 58.1°F14.5°C 77% Calm Calm -- 30.22 in1023.4 mb 0.00 in0.0 mm 0.00 in0.0 mm 0.00 in0.0 mm
12:20 AM 65.8°F18.8°C 58.3°F14.6°C 77% Calm Calm -- 30.22 in1023.4 mb 0.00 in0.0 mm 0.00 in0.0 mm 0.00 in0.0 mm
12:15 AM 66.0°F18.9°C 58.5°F14.7°C 77% Calm Calm -- 30.22 in1023.4 mb 0.00 in0.0 mm 0.00 in0.0 mm 0.00 in0.0 mm
12:10 AM 66.2°F19.0°C 58.6°F14.8°C 77% Calm Calm -- 30.23 in1023.7 mb 0.00 in0.0 mm 0.00 in0.0 mm 0.00 in0.0 mm
12:04 AM 66.6°F19.2°C 58.6°F14.8°C 76% Calm Calm -- 30.23 in1023.7 mb 0.00 in0.0 mm 0.00 in0.0 mm 0.00 in0.0 mm